createdAt,value
2019-03-18T00:00:09.281Z,9.60
2019-03-18T00:01:09.203Z,11.60
2019-03-18T00:02:09.267Z,9.70
2019-03-18T00:03:09.184Z,11.00
2019-03-18T00:04:09.280Z,9.80
2019-03-18T00:05:09.198Z,10.80
2019-03-18T00:06:09.189Z,10.70
2019-03-18T00:07:09.134Z,9.10
2019-03-18T00:08:09.205Z,12.60
2019-03-18T00:09:09.121Z,8.40
2019-03-18T00:10:09.242Z,9.30
2019-03-18T00:11:09.103Z,11.00
2019-03-18T00:12:09.124Z,10.00
2019-03-18T00:13:09.074Z,9.60
2019-03-18T00:14:09.144Z,9.60
2019-03-18T00:15:09.079Z,10.60
2019-03-18T00:16:09.165Z,8.60
2019-03-18T00:17:09.028Z,7.70
2019-03-18T00:18:09.068Z,9.30
2019-03-18T00:19:09.005Z,7.90
2019-03-18T00:20:09.122Z,7.10
2019-03-18T00:21:08.998Z,10.60
2019-03-18T00:22:09.094Z,9.20
2019-03-18T00:23:08.977Z,11.00
2019-03-18T00:24:09.012Z,9.50
2019-03-18T00:25:08.942Z,8.40
2019-03-18T00:26:09.054Z,8.30
2019-03-18T00:27:08.926Z,10.60
2019-03-18T00:29:10.030Z,10.80
2019-03-18T00:30:08.949Z,11.30
2019-03-18T00:31:08.954Z,11.00
2019-03-18T00:32:08.971Z,10.90
2019-03-18T00:33:08.867Z,12.00
2019-03-18T00:34:08.977Z,10.10
2019-03-18T00:35:08.843Z,10.10
2019-03-18T00:36:08.909Z,10.10
2019-03-18T00:37:08.819Z,10.60
2019-03-18T00:38:08.906Z,8.80
2019-03-18T00:39:08.801Z,9.50
2019-03-18T00:41:09.943Z,8.50
2019-03-18T00:42:08.820Z,11.40
2019-03-18T00:43:08.755Z,11.70
2019-03-18T00:44:08.845Z,9.50
2019-03-18T00:45:14.571Z,11.90
2019-03-18T00:46:09.797Z,10.80
2019-03-18T00:47:08.710Z,11.00
2019-03-18T00:48:08.763Z,10.50
2019-03-18T00:49:08.697Z,12.60
2019-03-18T00:50:08.782Z,11.30
2019-03-18T00:51:08.696Z,9.70
2019-03-18T00:52:09.638Z,11.50
2019-03-18T00:53:08.656Z,11.80
2019-03-18T00:54:08.706Z,13.20
2019-03-18T00:55:08.625Z,11.70
2019-03-18T00:56:09.670Z,13.80
2019-03-18T00:57:08.645Z,11.90
2019-03-18T00:58:08.656Z,12.50
2019-03-18T00:59:08.578Z,11.40
2019-03-18T01:00:08.641Z,9.40
2019-03-18T01:01:08.559Z,9.50
2019-03-18T01:02:08.695Z,10.00
2019-03-18T01:03:08.558Z,13.80
2019-03-18T01:04:08.573Z,12.10
2019-03-18T01:05:08.516Z,9.60
2019-03-18T01:06:08.577Z,9.50
2019-03-18T01:07:08.519Z,11.70
2019-03-18T01:08:08.618Z,11.30
2019-03-18T01:09:08.479Z,10.80
2019-03-18T01:10:08.510Z,10.50
2019-03-18T01:11:08.491Z,12.50
2019-03-18T01:12:08.558Z,10.30
2019-03-18T01:13:08.429Z,10.20
2019-03-18T01:14:08.538Z,10.30
2019-03-18T01:15:08.408Z,10.70
2019-03-18T01:16:08.450Z,10.50
2019-03-18T01:17:08.417Z,10.40
2019-03-18T01:18:08.460Z,10.20
2019-03-18T01:19:08.366Z,11.90
2019-03-18T01:20:08.474Z,10.40
2019-03-18T01:21:08.340Z,12.20
2019-03-18T01:22:08.413Z,11.80
2019-03-18T01:23:08.334Z,11.00
2019-03-18T01:24:08.422Z,10.90
2019-03-18T01:25:08.299Z,13.50
2019-03-18T01:26:08.419Z,10.10
2019-03-18T01:27:08.325Z,11.50
2019-03-18T01:28:08.361Z,11.40
2019-03-18T01:29:08.253Z,12.20
2019-03-18T01:30:08.338Z,13.60
2019-03-18T01:31:08.238Z,10.50
2019-03-18T01:32:08.257Z,12.10
2019-03-18T01:33:08.243Z,14.40
2019-03-18T01:34:08.279Z,10.80
2019-03-18T01:35:08.197Z,12.80
2019-03-18T01:36:08.279Z,12.20
2019-03-18T01:37:08.168Z,10.40
2019-03-18T01:38:08.221Z,12.90
2019-03-18T01:39:08.146Z,12.20
2019-03-18T01:40:08.206Z,11.00
2019-03-18T01:41:08.128Z,12.80
2019-03-18T01:42:08.213Z,12.90
2019-03-18T01:43:08.168Z,12.60
2019-03-18T01:44:08.281Z,11.40
2019-03-18T01:45:08.079Z,12.30
2019-03-18T01:46:08.142Z,14.40
2019-03-18T01:47:08.060Z,12.90
2019-03-18T01:48:08.223Z,11.60
2019-03-18T01:49:08.042Z,12.20
2019-03-18T01:50:08.070Z,11.90
2019-03-18T01:51:08.031Z,12.50
2019-03-18T01:52:08.082Z,12.70
2019-03-18T01:53:08.026Z,11.00
2019-03-18T01:54:08.100Z,12.10
2019-03-18T01:55:07.980Z,13.50
2019-03-18T01:57:09.085Z,13.60
2019-03-18T01:58:08.054Z,13.90
2019-03-18T01:59:07.970Z,14.70
2019-03-18T02:00:08.031Z,15.00
2019-03-18T02:01:07.905Z,12.50
2019-03-18T02:02:07.950Z,15.70
2019-03-18T02:03:07.889Z,12.30
2019-03-18T02:04:08.001Z,14.20
2019-03-18T02:05:07.867Z,12.60
2019-03-18T02:06:07.978Z,11.00
2019-03-18T02:07:07.850Z,11.40
2019-03-18T02:08:07.900Z,11.20
2019-03-18T02:09:07.847Z,11.40
2019-03-18T02:11:08.924Z,11.90
2019-03-18T02:12:07.927Z,13.10
2019-03-18T02:13:07.776Z,11.90
2019-03-18T02:14:07.858Z,13.10
2019-03-18T02:15:07.757Z,15.20
2019-03-18T02:16:07.836Z,13.30
2019-03-18T02:17:07.743Z,15.80
2019-03-18T02:18:07.753Z,14.70
2019-03-18T02:20:08.916Z,11.60
2019-03-18T02:21:07.824Z,14.60
2019-03-18T02:22:07.901Z,13.40
2019-03-18T02:23:07.803Z,11.70
2019-03-18T02:24:07.860Z,13.90
2019-03-18T02:25:07.797Z,13.50
2019-03-18T02:27:08.759Z,14.20
2019-03-18T02:28:07.713Z,10.70
2019-03-18T02:29:07.631Z,12.60
2019-03-18T02:30:07.679Z,13.70
2019-03-18T02:31:07.591Z,13.60
2019-03-18T02:32:07.638Z,14.60
2019-03-18T02:33:07.567Z,11.80
2019-03-18T02:34:07.659Z,12.70
2019-03-18T02:36:08.716Z,12.90
2019-03-18T02:37:07.645Z,13.50
2019-03-18T02:38:07.710Z,13.70
2019-03-18T02:39:07.622Z,12.80
2019-03-18T02:40:07.753Z,16.00
2019-03-18T02:41:07.604Z,11.40
2019-03-18T02:42:07.519Z,11.10
2019-03-18T02:43:07.455Z,13.50
2019-03-18T02:44:07.517Z,13.40
2019-03-18T02:45:07.452Z,14.30
2019-03-18T02:46:10.442Z,12.80
2019-03-18T02:47:07.406Z,14.70
2019-03-18T02:48:07.446Z,15.10
2019-03-18T02:49:07.390Z,15.20
2019-03-18T02:50:07.495Z,13.50
2019-03-18T02:51:07.418Z,13.90
2019-03-18T02:52:07.488Z,14.00
2019-03-18T02:53:07.373Z,13.80
2019-03-18T02:54:07.383Z,12.40
2019-03-18T02:55:07.323Z,13.50
2019-03-18T02:56:08.460Z,13.90
2019-03-18T02:57:07.300Z,13.40
2019-03-18T02:58:07.452Z,16.20
2019-03-18T02:59:07.293Z,13.30
2019-03-18T03:00:07.344Z,13.90
2019-03-18T03:01:07.293Z,13.90
2019-03-18T03:02:07.346Z,17.00
2019-03-18T03:03:07.235Z,15.30
2019-03-18T03:04:07.257Z,16.30
2019-03-18T03:05:07.217Z,16.60
2019-03-18T03:06:07.295Z,15.70
2019-03-18T03:07:07.208Z,15.70
2019-03-18T03:08:07.291Z,17.30
2019-03-18T03:09:07.170Z,14.60
2019-03-18T03:10:07.214Z,16.10
2019-03-18T03:11:07.185Z,17.60
2019-03-18T03:12:07.213Z,14.20
2019-03-18T03:13:07.128Z,14.90
2019-03-18T03:14:07.222Z,15.50
2019-03-18T03:15:07.107Z,15.30
2019-03-18T03:16:07.162Z,13.90
2019-03-18T03:17:07.083Z,18.30
2019-03-18T03:18:07.168Z,17.30
2019-03-18T03:19:07.080Z,16.20
2019-03-18T03:20:07.160Z,16.30
2019-03-18T03:21:07.069Z,12.50
2019-03-18T03:22:07.125Z,14.40
2019-03-18T03:23:07.027Z,17.10
2019-03-18T03:24:07.084Z,13.40
2019-03-18T03:25:07.000Z,15.80
2019-03-18T03:26:07.105Z,12.40
2019-03-18T03:27:07.002Z,12.20
2019-03-18T03:28:07.011Z,12.70
2019-03-18T03:29:06.948Z,13.70
2019-03-18T03:30:07.025Z,13.40
2019-03-18T03:31:06.932Z,13.80
2019-03-18T03:32:07.076Z,14.60
2019-03-18T03:33:06.925Z,14.20
2019-03-18T03:34:13.030Z,14.20
2019-03-18T03:35:07.912Z,13.60
2019-03-18T03:36:06.964Z,13.00
2019-03-18T03:37:06.906Z,14.70
2019-03-18T03:38:06.978Z,17.30
2019-03-18T03:39:06.839Z,16.60
2019-03-18T03:40:06.908Z,14.30
2019-03-18T03:41:06.821Z,15.70
2019-03-18T03:42:06.932Z,15.60
2019-03-18T03:43:06.796Z,15.20
2019-03-18T03:44:06.816Z,17.30
2019-03-18T03:45:06.776Z,18.30
2019-03-18T03:46:06.830Z,17.00
2019-03-18T03:47:06.815Z,17.10
2019-03-18T03:48:06.840Z,18.60
2019-03-18T03:49:06.741Z,16.00
2019-03-18T03:50:06.890Z,17.50
2019-03-18T03:51:06.710Z,18.70
2019-03-18T03:52:06.799Z,17.00
2019-03-18T03:53:06.689Z,17.70
2019-03-18T03:54:06.790Z,18.50
2019-03-18T03:55:06.681Z,19.70
2019-03-18T03:56:06.693Z,17.50
2019-03-18T03:57:06.654Z,17.80
2019-03-18T03:58:06.738Z,20.10
2019-03-18T03:59:06.643Z,18.90
2019-03-18T04:00:06.730Z,19.30
2019-03-18T04:01:06.606Z,19.90
2019-03-18T04:02:06.637Z,20.60
2019-03-18T04:03:06.605Z,24.00
2019-03-18T04:04:06.657Z,22.10
2019-03-18T04:05:06.561Z,22.00
2019-03-18T04:06:06.688Z,25.90
2019-03-18T04:07:06.545Z,23.10
2019-03-18T04:08:06.622Z,22.30
2019-03-18T04:09:06.517Z,28.90
2019-03-18T04:10:06.589Z,23.20
2019-03-18T04:11:08.502Z,23.20
2019-03-18T04:12:06.603Z,24.60
2019-03-18T04:13:06.508Z,24.30
2019-03-18T04:15:07.573Z,25.60
2019-03-18T04:16:06.529Z,26.40
2019-03-18T04:17:06.419Z,27.50
2019-03-18T04:18:07.494Z,25.80
2019-03-18T04:19:06.406Z,25.60
2019-03-18T04:20:06.449Z,24.50
2019-03-18T04:21:06.394Z,24.10
2019-03-18T04:23:07.487Z,25.80
2019-03-18T04:24:06.400Z,26.00
2019-03-18T04:25:06.337Z,27.70
2019-03-18T04:27:07.440Z,27.10
2019-03-18T04:28:06.398Z,25.10
2019-03-18T04:29:06.317Z,26.90
2019-03-18T04:30:06.329Z,25.40
2019-03-18T04:31:06.268Z,26.50
2019-03-18T04:32:06.326Z,24.80
2019-03-18T04:33:06.249Z,26.80
2019-03-18T04:34:06.379Z,28.60
2019-03-18T04:36:07.403Z,29.60
2019-03-18T04:37:06.331Z,28.30
2019-03-18T04:38:06.400Z,30.00
2019-03-18T04:44:23.572Z,31.20
2019-03-18T04:45:23.487Z,34.00
2019-03-18T04:46:23.428Z,29.90
2019-03-18T04:47:23.332Z,31.20
2019-03-18T04:48:23.446Z,33.00
2019-03-18T04:50:24.514Z,32.10
2019-03-18T04:51:23.415Z,35.00
2019-03-18T04:52:23.412Z,31.80
2019-03-18T04:53:23.407Z,34.20
2019-03-18T04:54:23.420Z,33.00
2019-03-18T04:55:23.412Z,35.20
2019-03-18T04:56:23.232Z,32.70
2019-03-18T04:57:23.291Z,33.10
2019-03-18T04:58:23.211Z,36.90
2019-03-18T04:59:23.338Z,32.90
2019-03-18T05:00:23.222Z,35.90
2019-03-18T05:01:23.229Z,36.70
2019-03-18T05:02:23.173Z,38.70
2019-03-18T05:03:23.260Z,39.40
2019-03-18T05:04:23.165Z,37.50
2019-03-18T05:05:23.282Z,35.80
2019-03-18T05:06:23.141Z,40.50
2019-03-18T05:07:23.162Z,39.40
2019-03-18T05:08:23.133Z,36.90
2019-03-18T05:09:23.177Z,37.90
2019-03-18T05:10:23.113Z,36.80
2019-03-18T05:11:23.215Z,36.60
2019-03-18T05:12:23.067Z,37.20
2019-03-18T05:14:24.169Z,36.70
2019-03-18T05:15:23.248Z,40.60
2019-03-18T05:16:23.038Z,37.50
2019-03-18T05:17:26.897Z,35.30
2019-03-18T05:18:23.006Z,39.80
2019-03-18T05:19:23.101Z,37.00
2019-03-18T05:20:23.003Z,42.20
2019-03-18T05:21:23.063Z,39.30
2019-03-18T05:22:22.995Z,38.40
2019-03-18T05:23:23.071Z,40.90
2019-03-18T05:24:22.933Z,38.50
2019-03-18T05:25:24.042Z,41.10
2019-03-18T05:26:22.939Z,40.50
2019-03-18T05:27:22.989Z,40.00
2019-03-18T05:28:22.898Z,40.70
2019-03-18T05:29:22.905Z,37.80
2019-03-18T05:30:22.897Z,38.80
2019-03-18T05:31:22.946Z,41.70
2019-03-18T05:32:22.860Z,37.20
2019-03-18T05:33:22.939Z,37.60
2019-03-18T05:34:22.827Z,35.40
2019-03-18T05:35:23.024Z,33.30
2019-03-18T05:36:22.808Z,38.90
2019-03-18T05:37:22.862Z,37.40
2019-03-18T05:38:22.777Z,36.00
2019-03-18T05:39:22.896Z,35.50
2019-03-18T05:40:22.767Z,40.90
2019-03-18T05:41:22.814Z,37.80
2019-03-18T05:42:22.741Z,38.10
2019-03-18T05:43:22.803Z,35.70
2019-03-18T05:44:22.725Z,38.40
2019-03-18T05:45:22.809Z,37.90
2019-03-18T05:46:22.719Z,38.40
2019-03-18T05:47:22.720Z,34.60
2019-03-18T05:48:22.673Z,34.30
2019-03-18T05:49:22.742Z,38.90
2019-03-18T05:50:22.655Z,38.90
2019-03-18T05:51:22.804Z,39.60
2019-03-18T05:52:22.668Z,35.20
2019-03-18T05:53:22.662Z,41.70
2019-03-18T05:54:22.627Z,39.00
2019-03-18T05:55:22.684Z,42.20
2019-03-18T05:56:22.640Z,40.50
2019-03-18T05:57:22.690Z,38.00
2019-03-18T05:58:22.562Z,39.90
2019-03-18T05:59:22.609Z,41.20
2019-03-18T06:00:22.567Z,44.50
2019-03-18T06:01:22.642Z,45.10
2019-03-18T06:02:22.519Z,41.80
2019-03-18T06:03:22.632Z,42.50
2019-03-18T06:04:22.499Z,40.70
2019-03-18T06:05:22.540Z,38.50
2019-03-18T06:06:22.482Z,40.00
2019-03-18T06:07:22.586Z,40.30
2019-03-18T06:08:22.455Z,41.50
2019-03-18T06:09:22.571Z,42.30
2019-03-18T06:10:22.437Z,43.10
2019-03-18T06:11:22.481Z,39.00
2019-03-18T06:12:22.452Z,46.00
2019-03-18T06:13:22.520Z,36.90
2019-03-18T06:14:22.393Z,43.30
2019-03-18T06:15:22.406Z,39.60
2019-03-18T06:16:22.370Z,40.30
2019-03-18T06:17:22.417Z,36.40
2019-03-18T06:18:22.375Z,32.10
2019-03-18T06:19:22.447Z,34.20
2019-03-18T06:20:22.326Z,33.40
2019-03-18T06:21:22.352Z,32.00
2019-03-18T06:22:22.299Z,36.00
2019-03-18T06:23:23.410Z,36.70
2019-03-18T06:24:22.277Z,34.80
2019-03-18T06:25:22.380Z,39.30
2019-03-18T06:26:22.257Z,37.20
2019-03-18T06:27:22.280Z,34.90
2019-03-18T06:28:22.274Z,34.60
2019-03-18T06:29:22.303Z,31.10
2019-03-18T06:30:22.217Z,30.80
2019-03-18T06:32:23.364Z,34.40
2019-03-18T06:33:22.260Z,31.10
2019-03-18T06:34:22.199Z,27.50
2019-03-18T06:35:22.239Z,26.70
2019-03-18T06:36:22.149Z,25.40
2019-03-18T06:37:22.253Z,25.30
2019-03-18T06:38:22.136Z,25.40
2019-03-18T06:39:22.193Z,27.00
2019-03-18T06:40:22.105Z,25.30
2019-03-18T06:41:22.180Z,23.10
2019-03-18T06:42:22.086Z,26.40
2019-03-18T06:43:22.231Z,23.50
2019-03-18T06:44:22.086Z,24.40
2019-03-18T06:45:22.105Z,24.80
2019-03-18T06:46:22.039Z,22.50
2019-03-18T06:47:22.128Z,23.40
2019-03-18T06:48:22.016Z,25.40
2019-03-18T06:49:22.052Z,27.50
2019-03-18T06:50:21.993Z,28.00
2019-03-18T06:51:22.046Z,27.70
2019-03-18T06:52:21.976Z,29.60
2019-03-18T06:53:22.087Z,29.10
2019-03-18T06:54:22.000Z,29.20
2019-03-18T06:55:21.980Z,31.70
2019-03-18T06:56:21.925Z,31.90
2019-03-18T06:57:21.983Z,34.50
2019-03-18T06:58:21.939Z,27.60
2019-03-18T06:59:21.902Z,33.00
2019-03-18T07:00:21.883Z,31.90
2019-03-18T07:02:22.993Z,32.60
2019-03-18T07:03:21.875Z,31.80
2019-03-18T07:04:21.858Z,33.70
2019-03-18T07:05:21.834Z,37.10
2019-03-18T07:06:21.820Z,36.00
2019-03-18T07:07:21.812Z,34.90
2019-03-18T07:08:21.798Z,30.60
2019-03-18T07:09:21.835Z,35.10
2019-03-18T07:10:21.779Z,37.80
2019-03-18T07:12:22.886Z,39.30
2019-03-18T07:13:21.743Z,36.30
2019-03-18T07:14:21.758Z,35.90
2019-03-18T07:15:21.756Z,37.80
2019-03-18T07:16:21.702Z,32.80
2019-03-18T07:17:21.708Z,34.10
2019-03-18T07:19:22.826Z,32.50
2019-03-18T07:20:21.670Z,32.40
2019-03-18T07:21:21.652Z,30.60
2019-03-18T07:22:21.677Z,36.00
2019-03-18T07:23:21.637Z,37.50
2019-03-18T07:24:21.625Z,36.60
2019-03-18T07:25:21.700Z,38.50
2019-03-18T07:26:21.610Z,37.00
2019-03-18T07:27:21.595Z,34.70
2019-03-18T07:28:21.587Z,34.10
2019-03-18T07:29:21.567Z,38.50
2019-03-18T07:30:21.596Z,30.90
2019-03-18T07:31:21.561Z,42.10
2019-03-18T07:32:21.541Z,37.40
2019-03-18T07:33:21.526Z,33.80
2019-03-18T07:34:21.535Z,30.50
2019-03-18T07:35:21.565Z,30.80
2019-03-18T07:36:21.529Z,30.30
2019-03-18T07:37:21.483Z,30.40
2019-03-18T07:38:21.474Z,27.70
2019-03-18T07:39:21.457Z,28.70
2019-03-18T07:40:21.479Z,31.10
2019-03-18T07:41:21.544Z,26.70
2019-03-18T07:42:21.434Z,29.50
2019-03-18T07:43:21.412Z,33.80
2019-03-18T07:44:21.435Z,26.80
2019-03-18T07:45:21.430Z,29.30
2019-03-18T07:46:21.411Z,28.10
2019-03-18T07:47:21.376Z,28.40
2019-03-18T07:48:30.427Z,28.40
2019-03-18T07:49:22.344Z,26.90
2019-03-18T07:50:21.344Z,29.90
2019-03-18T07:51:21.373Z,30.50
2019-03-18T07:52:21.960Z,34.20
2019-03-18T07:53:21.305Z,29.70
2019-03-18T07:54:32.258Z,31.50
2019-03-18T07:55:22.298Z,26.40
2019-03-18T07:56:21.305Z,28.60
2019-03-18T07:57:21.263Z,25.60
2019-03-18T07:58:22.566Z,26.30
2019-03-18T07:59:21.249Z,30.30
2019-03-18T08:00:21.233Z,26.60
2019-03-18T08:01:21.248Z,27.20
2019-03-18T08:02:21.257Z,26.70
2019-03-18T08:03:21.195Z,26.10
2019-03-18T08:04:21.208Z,29.30
2019-03-18T08:05:21.177Z,28.00
2019-03-18T08:06:21.192Z,28.50
2019-03-18T08:07:21.179Z,25.60
2019-03-18T08:08:21.181Z,25.20
2019-03-18T08:09:21.136Z,23.10
2019-03-18T08:10:21.133Z,23.40
2019-03-18T08:11:21.155Z,27.40
2019-03-18T08:12:21.115Z,25.80
2019-03-18T08:13:21.120Z,27.90
2019-03-18T08:14:21.085Z,20.00
2019-03-18T08:15:21.077Z,28.70
2019-03-18T08:16:21.184Z,27.00
2019-03-18T08:17:21.091Z,25.80
2019-03-18T08:18:21.221Z,23.30
2019-03-18T08:19:21.027Z,26.50
2019-03-18T08:20:21.021Z,23.90
2019-03-18T08:21:21.001Z,24.80
2019-03-18T08:22:21.001Z,26.10
2019-03-18T08:23:21.024Z,28.70
2019-03-18T08:24:20.983Z,25.50
2019-03-18T08:25:20.959Z,29.40
2019-03-18T08:26:20.951Z,26.00
2019-03-18T08:27:20.976Z,25.30
2019-03-18T08:28:20.968Z,26.70
2019-03-18T08:29:20.915Z,29.20
2019-03-18T08:30:20.913Z,26.50
2019-03-18T08:31:20.898Z,25.60
2019-03-18T08:32:20.887Z,26.90
2019-03-18T08:33:20.903Z,26.90
2019-03-18T08:34:20.892Z,28.40
2019-03-18T08:35:20.857Z,25.00
2019-03-18T08:36:20.868Z,27.20
2019-03-18T08:37:20.829Z,27.80
2019-03-18T08:38:20.855Z,27.90
2019-03-18T08:39:20.817Z,26.50
2019-03-18T08:40:20.833Z,27.90
2019-03-18T08:41:20.788Z,25.10
2019-03-18T08:42:20.785Z,26.10
2019-03-18T08:43:20.785Z,22.60
2019-03-18T08:44:20.761Z,22.70
2019-03-18T08:45:20.757Z,26.70
2019-03-18T08:46:20.747Z,24.40
2019-03-18T08:47:20.722Z,30.00
2019-03-18T08:48:20.743Z,22.60
2019-03-18T08:49:20.702Z,26.20
2019-03-18T08:50:20.698Z,30.20
2019-03-18T08:51:20.687Z,28.00
2019-03-18T08:52:20.683Z,23.40
2019-03-18T08:53:20.732Z,22.10
2019-03-18T08:54:20.663Z,20.70
2019-03-18T08:55:20.648Z,24.60
2019-03-18T08:56:20.644Z,24.70
2019-03-18T08:57:20.644Z,21.90
2019-03-18T08:58:20.618Z,26.40
2019-03-18T08:59:20.623Z,23.20
2019-03-18T09:00:20.601Z,23.60
2019-03-18T09:01:20.602Z,20.70
2019-03-18T09:03:21.708Z,19.40
2019-03-18T09:04:20.580Z,22.00
2019-03-18T09:05:20.531Z,23.80
2019-03-18T09:06:20.524Z,25.80
2019-03-18T09:07:20.512Z,26.90
2019-03-18T09:08:20.505Z,21.60
2019-03-18T09:09:20.522Z,24.00
2019-03-18T09:10:20.490Z,22.80
2019-03-18T09:11:20.460Z,24.10
2019-03-18T09:12:20.459Z,21.30
2019-03-18T09:13:20.441Z,20.60
2019-03-18T09:14:20.462Z,23.80
2019-03-18T09:15:20.424Z,25.10
2019-03-18T09:16:20.422Z,16.90
2019-03-18T09:17:20.401Z,19.70
2019-03-18T09:18:20.412Z,22.80
2019-03-18T09:19:20.406Z,17.20
2019-03-18T09:20:20.370Z,21.60
2019-03-18T09:21:20.355Z,19.50
2019-03-18T09:22:20.346Z,23.90
2019-03-18T09:23:20.325Z,20.10
2019-03-18T09:24:20.408Z,21.30
2019-03-18T09:25:20.308Z,22.60
2019-03-18T09:26:20.304Z,22.90
2019-03-18T09:27:20.291Z,17.10
2019-03-18T09:28:22.291Z,23.90
2019-03-18T09:29:20.261Z,19.80
2019-03-18T09:30:20.300Z,17.60
2019-03-18T09:31:20.364Z,19.10
2019-03-18T09:32:20.247Z,21.70
2019-03-18T09:33:20.225Z,19.50
2019-03-18T09:34:20.210Z,19.50
2019-03-18T09:35:20.237Z,24.10
2019-03-18T09:36:20.207Z,20.70
2019-03-18T09:37:20.172Z,18.40
2019-03-18T09:38:20.168Z,23.50
2019-03-18T09:39:20.161Z,20.10
2019-03-18T09:40:20.176Z,23.50
2019-03-18T09:41:20.138Z,16.70
2019-03-18T09:42:20.129Z,21.60
2019-03-18T09:43:20.119Z,19.80
2019-03-18T09:44:20.100Z,22.70
2019-03-18T09:45:20.114Z,24.30
2019-03-18T09:46:20.086Z,25.60
2019-03-18T09:47:20.071Z,22.60
2019-03-18T09:48:20.077Z,21.90
2019-03-18T09:49:22.048Z,21.60
2019-03-18T09:50:20.095Z,18.40
2019-03-18T09:51:20.028Z,19.70
2019-03-18T09:52:20.041Z,19.00
2019-03-18T09:53:19.997Z,19.00
2019-03-18T09:54:19.999Z,19.40
2019-03-18T09:55:20.010Z,12.20
2019-03-18T09:56:19.970Z,17.20
2019-03-18T09:57:25.804Z,21.60
2019-03-18T09:58:20.955Z,17.30
2019-03-18T09:59:19.941Z,21.10
2019-03-18T10:00:19.964Z,16.40
2019-03-18T10:01:19.916Z,21.70
2019-03-18T10:02:19.919Z,18.60
2019-03-18T10:03:19.906Z,16.90
2019-03-18T10:04:19.892Z,20.70
2019-03-18T10:05:19.874Z,18.10
2019-03-18T10:06:19.899Z,21.50
2019-03-18T10:07:19.852Z,20.00
2019-03-18T10:08:19.843Z,20.60
2019-03-18T10:09:19.830Z,21.80
2019-03-18T10:10:19.821Z,19.80
2019-03-18T10:11:19.835Z,21.50
2019-03-18T10:12:19.825Z,19.20
2019-03-18T10:13:19.787Z,20.60
2019-03-18T10:14:19.938Z,20.90
2019-03-18T10:15:19.771Z,18.40
2019-03-18T10:16:19.795Z,19.10
2019-03-18T10:17:19.739Z,23.10
2019-03-18T10:18:19.776Z,18.00
2019-03-18T10:19:19.717Z,24.40
2019-03-18T10:20:19.716Z,20.80
2019-03-18T10:21:19.727Z,18.50
2019-03-18T10:22:19.699Z,15.60
2019-03-18T10:23:19.676Z,18.00
2019-03-18T10:24:19.674Z,16.40
2019-03-18T10:25:19.654Z,17.70
2019-03-18T10:26:19.692Z,18.30
2019-03-18T10:27:19.638Z,18.90
2019-03-18T10:28:19.627Z,19.30
2019-03-18T10:29:19.645Z,20.90
2019-03-18T10:30:19.607Z,18.40
2019-03-18T10:31:19.628Z,22.50
2019-03-18T10:32:19.585Z,19.20
2019-03-18T10:33:19.569Z,20.40
2019-03-18T10:34:19.561Z,20.90
2019-03-18T10:35:19.543Z,17.10
2019-03-18T10:36:19.600Z,21.00
2019-03-18T10:37:19.526Z,18.10
2019-03-18T10:38:19.515Z,17.90
2019-03-18T10:39:19.499Z,15.70
2019-03-18T10:40:19.504Z,19.70
2019-03-18T10:41:19.477Z,20.40
2019-03-18T10:42:19.500Z,19.70
2019-03-18T10:43:19.467Z,19.60
2019-03-18T10:44:19.453Z,22.70
2019-03-18T10:45:19.438Z,18.20
2019-03-18T10:46:19.429Z,19.90
2019-03-18T10:47:19.444Z,15.90
2019-03-18T10:48:19.410Z,16.70
2019-03-18T10:49:19.393Z,17.80
2019-03-18T10:50:19.394Z,16.90
2019-03-18T10:51:19.373Z,17.90
2019-03-18T10:52:19.421Z,17.50
2019-03-18T10:53:19.434Z,22.90
2019-03-18T10:54:30.366Z,17.50
2019-03-18T10:55:20.334Z,12.80
2019-03-18T10:56:19.327Z,26.30
2019-03-18T10:57:19.336Z,17.60
2019-03-18T10:58:19.307Z,16.10
2019-03-18T10:59:19.285Z,17.70
2019-03-18T11:00:19.340Z,19.40
2019-03-18T11:01:19.262Z,20.00
2019-03-18T11:02:19.257Z,13.40
2019-03-18T11:03:19.270Z,18.10
2019-03-18T11:04:19.243Z,17.40
2019-03-18T11:05:19.226Z,16.00
2019-03-18T11:06:19.213Z,21.80
2019-03-18T11:07:19.196Z,14.80
2019-03-18T11:08:19.228Z,16.10
2019-03-18T11:09:19.180Z,15.30
2019-03-18T11:10:19.176Z,17.70
2019-03-18T11:11:19.175Z,22.30
2019-03-18T11:12:19.146Z,15.70
2019-03-18T11:13:19.156Z,15.00
2019-03-18T11:14:19.161Z,16.60
2019-03-18T11:15:19.110Z,18.40
2019-03-18T11:16:19.119Z,22.60
2019-03-18T11:17:19.094Z,12.40
2019-03-18T11:18:19.121Z,18.80
2019-03-18T11:19:19.060Z,13.60
2019-03-18T11:20:19.086Z,18.80
2019-03-18T11:21:19.089Z,18.90
2019-03-18T11:22:19.036Z,13.70
2019-03-18T11:23:19.117Z,12.50
2019-03-18T11:24:19.018Z,14.30
2019-03-18T11:25:19.008Z,15.00
2019-03-18T11:26:19.011Z,15.10
2019-03-18T11:27:18.986Z,11.30
2019-03-18T11:28:19.005Z,11.60
2019-03-18T11:29:19.100Z,13.70
2019-03-18T11:30:18.972Z,15.40
2019-03-18T11:31:18.944Z,10.90
2019-03-18T11:32:18.951Z,12.90
2019-03-18T11:33:18.917Z,11.20
2019-03-18T11:34:18.937Z,15.10
2019-03-18T11:35:18.896Z,15.10
2019-03-18T11:36:18.894Z,16.00
2019-03-18T11:37:18.879Z,12.50
2019-03-18T11:38:18.867Z,12.70
2019-03-18T11:39:18.898Z,12.00
2019-03-18T11:41:20.046Z,13.50
2019-03-18T11:42:18.821Z,12.90
2019-03-18T11:43:18.808Z,14.60
2019-03-18T11:45:19.933Z,14.70
2019-03-18T11:46:18.899Z,18.20
2019-03-18T11:47:18.906Z,9.30
2019-03-18T11:48:18.883Z,13.70
2019-03-18T11:49:18.887Z,14.00
2019-03-18T11:50:18.885Z,13.30
2019-03-18T11:51:18.726Z,14.20
2019-03-18T11:52:18.713Z,18.70
2019-03-18T11:53:18.721Z,11.90
2019-03-18T11:54:18.808Z,15.10
2019-03-18T11:55:18.738Z,16.50
2019-03-18T11:56:18.681Z,12.20
2019-03-18T11:57:18.658Z,10.50
2019-03-18T11:58:18.673Z,17.00
2019-03-18T11:59:20.800Z,11.60
2019-03-18T12:00:18.651Z,11.90
2019-03-18T12:01:18.613Z,13.40
2019-03-18T12:02:27.666Z,17.30
2019-03-18T12:03:19.609Z,17.80
2019-03-18T12:04:18.601Z,16.20
2019-03-18T12:05:18.591Z,14.50
2019-03-18T12:06:18.611Z,21.10
2019-03-18T12:07:18.550Z,17.60
2019-03-18T12:08:18.547Z,19.00
2019-03-18T12:09:18.536Z,15.90
2019-03-18T12:10:18.544Z,18.40
2019-03-18T12:11:18.512Z,15.00
2019-03-18T12:12:18.498Z,14.30
2019-03-18T12:13:18.491Z,15.20
2019-03-18T12:14:18.476Z,13.20
2019-03-18T12:15:21.416Z,14.20
2019-03-18T12:17:19.587Z,15.50
2019-03-18T12:19:19.546Z,18.80
2019-03-18T12:20:24.705Z,14.70
2019-03-18T12:21:18.425Z,20.60
2019-03-18T12:22:22.100Z,14.90
2019-03-18T12:23:18.367Z,14.90
2019-03-18T12:24:22.244Z,20.10
2019-03-18T12:25:18.361Z,15.70
2019-03-18T12:26:22.367Z,12.10
2019-03-18T12:27:18.349Z,18.70
2019-03-18T12:29:18.596Z,22.10
2019-03-18T12:31:18.344Z,17.90
2019-03-18T12:32:18.847Z,18.30
2019-03-18T12:33:18.280Z,12.80
2019-03-18T12:34:20.440Z,17.20
2019-03-18T12:35:18.420Z,18.80
2019-03-18T12:36:18.362Z,23.80
2019-03-18T12:37:18.244Z,20.40
2019-03-18T12:38:18.313Z,15.20
2019-03-18T12:39:18.262Z,14.90
2019-03-18T12:40:18.274Z,15.40
2019-03-18T12:41:18.171Z,20.10
2019-03-18T12:42:18.278Z,17.00
2019-03-18T12:43:18.155Z,12.10
2019-03-18T12:44:18.250Z,14.40
2019-03-18T12:45:18.157Z,14.40
2019-03-18T12:46:18.192Z,14.70
2019-03-18T12:47:18.157Z,34.90
2019-03-18T12:48:18.178Z,26.60
2019-03-18T12:49:18.087Z,20.70
2019-03-18T12:50:18.213Z,16.50
2019-03-18T12:51:18.087Z,12.20
2019-03-18T12:52:18.241Z,11.60
2019-03-18T12:53:18.045Z,9.40
2019-03-18T12:54:18.123Z,13.30
2019-03-18T12:55:18.065Z,13.20
2019-03-18T12:56:18.127Z,11.30
2019-03-18T12:57:18.071Z,15.00
2019-03-18T12:58:18.057Z,13.10
2019-03-18T12:59:17.977Z,12.00
2019-03-18T13:00:18.083Z,13.60
2019-03-18T13:01:17.957Z,15.20
2019-03-18T13:02:18.015Z,13.30
2019-03-18T13:03:17.937Z,13.60
2019-03-18T13:04:17.990Z,15.20
2019-03-18T13:05:17.912Z,14.10
2019-03-18T13:06:17.995Z,12.10
2019-03-18T13:07:17.916Z,11.00
2019-03-18T13:08:17.956Z,17.30
2019-03-18T13:09:17.872Z,18.10
2019-03-18T13:10:21.291Z,11.50
2019-03-18T13:11:17.855Z,11.10
2019-03-18T13:12:17.993Z,11.40
2019-03-18T13:13:17.857Z,15.10
2019-03-18T13:14:17.848Z,13.30
2019-03-18T13:15:17.812Z,14.10
2019-03-18T13:16:18.338Z,14.50
2019-03-18T13:17:17.783Z,11.70
2019-03-18T13:18:17.911Z,10.50
2019-03-18T13:19:17.790Z,14.40
2019-03-18T13:20:17.787Z,8.40
2019-03-18T13:21:17.737Z,10.70
2019-03-18T13:22:17.804Z,13.20